createdAt,value
2022-08-12T00:00:39.765Z,2.97
2022-08-12T00:06:05.043Z,3.10
2022-08-12T00:11:27.588Z,3.30
2022-08-12T00:16:50.765Z,3.85
2022-08-12T00:22:12.410Z,2.70
2022-08-12T00:27:43.876Z,2.50
2022-08-12T00:33:10.350Z,2.97
2022-08-12T00:38:33.451Z,3.00
2022-08-12T00:43:38.526Z,2.43
2022-08-12T00:48:44.322Z,2.92
2022-08-12T00:53:48.759Z,2.80
2022-08-12T00:58:56.042Z,2.70
2022-08-12T01:04:24.649Z,2.70
2022-08-12T01:09:49.030Z,2.85
2022-08-12T01:14:55.216Z,2.60
2022-08-12T01:20:07.771Z,2.77
2022-08-12T01:25:18.392Z,2.67
2022-08-12T01:30:26.332Z,2.80
2022-08-12T01:35:34.238Z,2.60
2022-08-12T01:40:47.857Z,2.88
2022-08-12T01:46:07.539Z,2.67
2022-08-12T01:52:14.783Z,2.80
2022-08-12T01:57:05.464Z,2.80
2022-08-12T02:02:16.569Z,2.90
2022-08-12T02:07:55.927Z,2.60
2022-08-12T02:13:11.315Z,2.88
2022-08-12T02:18:30.402Z,2.70
2022-08-12T02:23:38.363Z,3.08
2022-08-12T02:28:44.691Z,3.10
2022-08-12T02:33:49.772Z,2.90
2022-08-12T02:38:57.293Z,3.07
2022-08-12T02:44:10.519Z,3.60
2022-08-12T02:49:24.044Z,3.50
2022-08-12T02:54:28.826Z,3.20
2022-08-12T02:59:36.518Z,2.95
2022-08-12T03:04:48.854Z,3.13
2022-08-12T03:10:04.351Z,3.30
2022-08-12T03:15:14.150Z,3.58
2022-08-12T03:20:25.546Z,3.33
2022-08-12T03:25:36.740Z,3.58
2022-08-12T03:30:43.522Z,3.80
2022-08-12T03:35:50.820Z,3.88
2022-08-12T03:41:22.096Z,3.85
2022-08-12T03:46:55.681Z,3.80
2022-08-12T03:52:18.962Z,3.87
2022-08-12T03:57:40.493Z,3.80
2022-08-12T04:02:55.656Z,4.00
2022-08-12T04:08:01.850Z,3.70
2022-08-12T04:13:19.637Z,3.70
2022-08-12T04:18:26.376Z,4.00
2022-08-12T04:23:33.699Z,4.55
2022-08-12T04:28:37.969Z,4.50
2022-08-12T04:33:44.350Z,4.43
2022-08-12T04:38:49.048Z,4.90
2022-08-12T04:44:01.196Z,5.00
2022-08-12T04:49:07.942Z,4.80
2022-08-12T04:54:13.184Z,4.72
2022-08-12T04:59:21.437Z,3.40
2022-08-12T05:04:28.353Z,3.63
2022-08-12T05:09:59.288Z,4.00
2022-08-12T05:14:56.945Z,4.20
2022-08-12T05:20:02.859Z,4.18
2022-08-12T05:25:09.643Z,3.75
2022-08-12T05:30:15.123Z,4.85
2022-08-12T05:35:21.861Z,4.50
2022-08-12T05:40:26.973Z,3.60
2022-08-12T05:45:31.308Z,4.03
2022-08-12T05:50:37.320Z,3.15
2022-08-12T05:55:42.299Z,3.40
2022-08-12T06:00:46.513Z,3.70
2022-08-12T06:05:55.135Z,3.60
2022-08-12T06:11:01.494Z,4.03
2022-08-12T06:16:07.213Z,3.75
2022-08-12T06:21:15.946Z,3.60
2022-08-12T06:26:21.357Z,3.83
2022-08-12T06:31:26.915Z,4.18
2022-08-12T06:36:33.704Z,3.70
2022-08-12T06:42:04.832Z,3.20
2022-08-12T06:47:22.096Z,3.33
2022-08-12T06:52:28.440Z,3.25
2022-08-12T06:58:06.808Z,2.95
2022-08-12T07:02:59.087Z,2.80
2022-08-12T07:08:22.141Z,2.40
2022-08-12T07:13:29.117Z,4.45
2022-08-12T07:18:35.574Z,2.78
2022-08-12T07:23:42.677Z,2.88
2022-08-12T07:28:50.594Z,2.50
2022-08-12T07:33:56.030Z,2.60
2022-08-12T07:39:02.504Z,2.10
2022-08-12T07:44:10.155Z,2.53
2022-08-12T07:49:17.142Z,1.90
2022-08-12T07:54:24.233Z,2.47
2022-08-12T07:59:28.588Z,2.20
2022-08-12T08:04:50.039Z,2.20
2022-08-12T08:09:58.591Z,2.23
2022-08-12T08:15:04.026Z,2.38
2022-08-12T08:20:10.492Z,2.50
2022-08-12T08:25:34.484Z,2.33
2022-08-12T08:30:45.628Z,2.22
2022-08-12T08:35:49.873Z,3.00
2022-08-12T08:42:15.530Z,2.08
2022-08-12T08:46:44.372Z,2.00
2022-08-12T08:51:48.587Z,1.98
2022-08-12T08:56:54.184Z,2.05
2022-08-12T09:01:59.295Z,2.20
2022-08-12T09:07:16.597Z,2.95
2022-08-12T09:12:42.256Z,1.83
2022-08-12T09:17:56.966Z,1.60
2022-08-12T09:23:16.550Z,1.75
2022-08-12T09:28:34.212Z,1.95
2022-08-12T09:34:27.449Z,2.63
2022-08-12T09:40:05.935Z,2.40
2022-08-12T09:45:18.254Z,2.08
2022-08-12T09:50:20.356Z,2.03
2022-08-12T09:56:07.073Z,2.22
2022-08-12T10:00:54.876Z,2.07
2022-08-12T10:06:27.215Z,2.10
2022-08-12T10:12:11.272Z,1.90
2022-08-12T10:17:09.367Z,2.00
2022-08-12T10:22:37.214Z,1.90
2022-08-12T10:28:03.667Z,1.90
2022-08-12T10:33:19.131Z,2.43
2022-08-12T10:38:35.648Z,1.80
2022-08-12T10:43:55.157Z,1.90
2022-08-12T10:49:06.903Z,1.70
2022-08-12T10:54:27.653Z,1.80
2022-08-12T11:00:29.059Z,1.70
2022-08-12T11:07:02.147Z,1.70
2022-08-12T11:10:26.709Z,1.75
2022-08-12T11:16:02.937Z,2.40
2022-08-12T11:21:00.876Z,1.98
2022-08-12T11:26:09.995Z,1.85
2022-08-12T11:31:14.737Z,1.70
2022-08-12T11:36:22.465Z,1.73
2022-08-12T11:41:31.163Z,1.77
2022-08-12T11:46:37.833Z,1.80
2022-08-12T11:51:43.542Z,1.53
2022-08-12T11:58:07.094Z,1.80
2022-08-12T12:02:27.740Z,1.67
2022-08-12T12:08:37.781Z,1.40
2022-08-12T12:12:58.460Z,1.77
2022-08-12T12:18:02.771Z,2.30
2022-08-12T12:23:28.680Z,2.05
2022-08-12T12:28:36.947Z,1.30
2022-08-12T12:33:57.755Z,1.10
2022-08-12T12:39:06.561Z,1.55
2022-08-12T12:44:26.117Z,1.10
2022-08-12T12:49:39.326Z,1.40
2022-08-12T12:54:52.643Z,1.40
2022-08-12T13:00:11.185Z,1.47
2022-08-12T13:05:17.087Z,1.30
2022-08-12T13:10:36.871Z,1.40
2022-08-12T13:15:43.376Z,1.10
2022-08-12T13:20:50.669Z,1.05
2022-08-12T13:26:05.425Z,1.10
2022-08-12T13:31:10.027Z,1.65
2022-08-12T13:36:16.246Z,1.20
2022-08-12T13:41:33.803Z,1.45
2022-08-12T13:46:38.693Z,1.30
2022-08-12T13:51:43.927Z,1.33
2022-08-12T13:56:51.646Z,1.00
2022-08-12T14:01:58.421Z,1.40
2022-08-12T14:07:05.677Z,1.40
2022-08-12T14:12:16.448Z,1.50
2022-08-12T14:17:20.947Z,1.50
2022-08-12T14:22:27.396Z,1.20
2022-08-12T14:28:03.229Z,1.50
2022-08-12T14:33:03.266Z,1.10
2022-08-12T14:38:25.955Z,1.30
2022-08-12T14:43:59.318Z,1.20
2022-08-12T14:50:01.249Z,1.48
2022-08-12T15:00:10.258Z,1.67
2022-08-12T15:06:06.179Z,1.38
2022-08-12T15:10:46.209Z,1.60
2022-08-12T15:16:01.937Z,1.77
2022-08-12T15:21:11.626Z,1.23
2022-08-12T15:26:21.374Z,1.42
2022-08-12T15:31:45.674Z,1.25
2022-08-12T15:36:58.781Z,1.38
2022-08-12T15:42:04.294Z,1.60
2022-08-12T15:47:10.233Z,1.65
2022-08-12T15:52:27.021Z,1.42
2022-08-12T15:57:33.451Z,1.50
2022-08-12T16:02:47.424Z,1.77
2022-08-12T16:07:56.412Z,1.45
2022-08-12T16:13:12.785Z,1.33
2022-08-12T16:18:20.560Z,1.70
2022-08-12T16:23:35.795Z,1.43
2022-08-12T16:28:49.932Z,2.08
2022-08-12T16:33:58.841Z,1.55
2022-08-12T16:39:05.346Z,1.80
2022-08-12T16:44:09.978Z,1.60
2022-08-12T16:49:16.709Z,1.60
2022-08-12T16:54:26.452Z,1.67
2022-08-12T16:59:54.253Z,1.80
2022-08-12T17:04:56.772Z,1.88
2022-08-12T17:10:01.530Z,1.50
2022-08-12T17:15:51.298Z,1.63
2022-08-12T17:20:41.563Z,2.13
2022-08-12T17:25:54.204Z,1.80
2022-08-12T17:31:00.334Z,1.70
2022-08-12T17:36:07.201Z,1.70
2022-08-12T17:41:23.087Z,1.52
2022-08-12T17:46:40.145Z,1.50
2022-08-12T17:51:49.910Z,1.65
2022-08-12T17:56:57.671Z,1.80
2022-08-12T18:02:03.932Z,1.70
2022-08-12T18:07:12.763Z,1.70
2022-08-12T18:12:35.616Z,1.70
2022-08-12T18:17:46.990Z,1.95
2022-08-12T18:22:55.728Z,1.50
2022-08-12T18:28:15.423Z,1.60
2022-08-12T18:33:24.797Z,2.20
2022-08-12T18:38:31.574Z,1.90
2022-08-12T18:43:38.964Z,2.53
2022-08-12T18:49:17.626Z,1.70
2022-08-12T18:54:28.032Z,1.70
2022-08-12T19:00:01.053Z,1.85
2022-08-12T19:05:08.144Z,2.10
2022-08-12T19:10:18.481Z,1.90
2022-08-12T19:15:29.806Z,2.50
2022-08-12T19:20:35.806Z,1.75
2022-08-12T19:26:00.303Z,1.37
2022-08-12T19:31:45.423Z,1.77
2022-08-12T19:37:05.940Z,1.77
2022-08-12T19:42:15.751Z,2.17
2022-08-12T19:47:22.999Z,2.40
2022-08-12T19:52:33.666Z,2.17
2022-08-12T19:57:42.558Z,1.90
2022-08-12T20:03:07.697Z,1.90
2022-08-12T20:08:13.288Z,1.77
2022-08-12T20:13:37.382Z,2.60
2022-08-12T20:18:52.951Z,1.90
2022-08-12T20:24:01.745Z,2.00
2022-08-12T20:29:08.148Z,2.00
2022-08-12T20:34:12.733Z,1.67
2022-08-12T20:39:52.499Z,1.83
2022-08-12T20:44:44.579Z,1.83
2022-08-12T20:49:55.788Z,1.63
2022-08-12T20:55:05.860Z,1.60
2022-08-12T21:00:28.225Z,2.20
2022-08-12T21:06:12.187Z,3.40
2022-08-12T21:11:14.653Z,2.25
2022-08-12T21:16:35.353Z,2.57
2022-08-12T21:21:49.885Z,2.10
2022-08-12T21:27:00.028Z,1.77
2022-08-12T21:32:47.300Z,1.85
2022-08-12T21:37:37.164Z,2.20
2022-08-12T21:42:42.610Z,1.98
2022-08-12T21:47:53.394Z,1.80
2022-08-12T21:52:57.896Z,1.70
2022-08-12T21:58:16.695Z,1.90
2022-08-12T22:04:04.095Z,1.83
2022-08-12T22:09:15.357Z,1.97
2022-08-12T22:14:23.635Z,2.92
2022-08-12T22:19:33.621Z,2.10
2022-08-12T22:24:40.561Z,3.55
2022-08-12T22:30:02.916Z,2.40
2022-08-12T22:35:29.501Z,2.28
2022-08-12T22:40:54.129Z,2.20
2022-08-12T22:46:17.038Z,2.25
2022-08-12T22:51:26.895Z,2.10
2022-08-12T22:56:32.919Z,2.35
2022-08-12T23:02:01.265Z,2.07
2022-08-12T23:07:10.814Z,2.13
2022-08-12T23:12:40.824Z,1.85
2022-08-12T23:17:51.174Z,1.93
2022-08-12T23:23:03.047Z,2.75
2022-08-12T23:28:30.240Z,2.20
2022-08-12T23:34:02.614Z,1.88
2022-08-12T23:39:03.694Z,1.63
2022-08-12T23:44:10.287Z,1.93
2022-08-12T23:49:55.744Z,2.00
2022-08-12T23:54:44.789Z,2.00
2022-08-12T23:59:55.378Z,2.27
